sensor_id;sensor_type;location;lat;lon;timestamp;P1;durP1;ratioP1;P2;durP2;ratioP2
80541;SDS011;69870;51.460;8.842;2024-01-07T00:02:23;24.95;;;12.60;;
80541;SDS011;69870;51.460;8.842;2024-01-07T00:04:50;29.45;;;14.68;;
80541;SDS011;69870;51.460;8.842;2024-01-07T00:07:18;33.45;;;15.65;;
80541;SDS011;69870;51.460;8.842;2024-01-07T00:09:45;34.05;;;15.70;;
80541;SDS011;69870;51.460;8.842;2024-01-07T00:12:12;28.45;;;13.60;;
80541;SDS011;69870;51.460;8.842;2024-01-07T00:14:38;22.92;;;12.07;;
80541;SDS011;69870;51.460;8.842;2024-01-07T00:17:05;25.65;;;12.43;;
80541;SDS011;69870;51.460;8.842;2024-01-07T00:19:32;25.25;;;11.90;;
80541;SDS011;69870;51.460;8.842;2024-01-07T00:22:00;25.45;;;12.05;;
80541;SDS011;69870;51.460;8.842;2024-01-07T00:24:28;24.25;;;12.18;;
80541;SDS011;69870;51.460;8.842;2024-01-07T00:26:55;31.20;;;13.82;;
80541;SDS011;69870;51.460;8.842;2024-01-07T00:29:22;29.65;;;12.73;;
80541;SDS011;69870;51.460;8.842;2024-01-07T00:31:48;34.35;;;15.60;;
80541;SDS011;69870;51.460;8.842;2024-01-07T00:34:15;29.58;;;14.13;;
80541;SDS011;69870;51.460;8.842;2024-01-07T00:36:41;34.72;;;16.70;;
80541;SDS011;69870;51.460;8.842;2024-01-07T00:39:08;37.40;;;16.90;;
80541;SDS011;69870;51.460;8.842;2024-01-07T00:41:36;38.95;;;16.15;;
80541;SDS011;69870;51.460;8.842;2024-01-07T00:44:02;36.40;;;15.65;;
80541;SDS011;69870;51.460;8.842;2024-01-07T00:46:29;32.72;;;14.30;;
80541;SDS011;69870;51.460;8.842;2024-01-07T00:48:56;40.80;;;17.55;;
80541;SDS011;69870;51.460;8.842;2024-01-07T00:51:23;36.88;;;15.77;;
80541;SDS011;69870;51.460;8.842;2024-01-07T00:53:49;40.55;;;16.70;;
80541;SDS011;69870;51.460;8.842;2024-01-07T00:56:16;44.03;;;17.05;;
80541;SDS011;69870;51.460;8.842;2024-01-07T00:58:44;45.75;;;18.10;;
80541;SDS011;69870;51.460;8.842;2024-01-07T01:01:10;39.40;;;17.73;;
80541;SDS011;69870;51.460;8.842;2024-01-07T01:03:37;46.50;;;18.65;;
80541;SDS011;69870;51.460;8.842;2024-01-07T01:06:03;42.58;;;18.70;;
80541;SDS011;69870;51.460;8.842;2024-01-07T01:08:30;47.63;;;17.77;;
80541;SDS011;69870;51.460;8.842;2024-01-07T01:10:57;51.25;;;21.77;;
80541;SDS011;69870;51.460;8.842;2024-01-07T01:13:23;49.03;;;19.15;;
80541;SDS011;69870;51.460;8.842;2024-01-07T01:15:51;42.92;;;18.77;;
80541;SDS011;69870;51.460;8.842;2024-01-07T01:18:18;53.63;;;19.73;;
80541;SDS011;69870;51.460;8.842;2024-01-07T01:20:45;60.30;;;20.38;;
80541;SDS011;69870;51.460;8.842;2024-01-07T01:23:11;50.40;;;19.05;;
80541;SDS011;69870;51.460;8.842;2024-01-07T01:25:38;55.20;;;21.98;;
80541;SDS011;69870;51.460;8.842;2024-01-07T01:28:05;50.33;;;20.48;;
80541;SDS011;69870;51.460;8.842;2024-01-07T01:30:31;57.67;;;20.25;;
80541;SDS011;69870;51.460;8.842;2024-01-07T01:32:59;52.00;;;21.08;;
80541;SDS011;69870;51.460;8.842;2024-01-07T01:35:27;48.40;;;20.45;;
80541;SDS011;69870;51.460;8.842;2024-01-07T01:37:53;66.30;;;24.13;;
80541;SDS011;69870;51.460;8.842;2024-01-07T01:40:20;59.22;;;23.33;;
80541;SDS011;69870;51.460;8.842;2024-01-07T01:42:47;56.10;;;22.75;;
80541;SDS011;69870;51.460;8.842;2024-01-07T01:45:14;55.85;;;24.45;;
80541;SDS011;69870;51.460;8.842;2024-01-07T01:47:40;58.25;;;24.17;;
80541;SDS011;69870;51.460;8.842;2024-01-07T01:50:09;55.85;;;22.35;;
80541;SDS011;69870;51.460;8.842;2024-01-07T01:52:37;46.75;;;19.35;;
80541;SDS011;69870;51.460;8.842;2024-01-07T01:55:03;55.00;;;21.85;;
80541;SDS011;69870;51.460;8.842;2024-01-07T01:57:32;42.55;;;19.00;;
80541;SDS011;69870;51.460;8.842;2024-01-07T02:00:00;45.97;;;18.90;;
80541;SDS011;69870;51.460;8.842;2024-01-07T02:02:30;47.22;;;19.85;;
80541;SDS011;69870;51.460;8.842;2024-01-07T02:04:59;45.38;;;20.10;;
80541;SDS011;69870;51.460;8.842;2024-01-07T02:07:27;41.85;;;17.98;;
80541;SDS011;69870;51.460;8.842;2024-01-07T02:09:55;44.35;;;20.15;;
80541;SDS011;69870;51.460;8.842;2024-01-07T02:12:22;39.40;;;17.77;;
80541;SDS011;69870;51.460;8.842;2024-01-07T02:14:49;35.58;;;16.52;;
80541;SDS011;69870;51.460;8.842;2024-01-07T02:17:16;43.90;;;17.83;;
80541;SDS011;69870;51.460;8.842;2024-01-07T02:19:43;39.92;;;16.85;;
80541;SDS011;69870;51.460;8.842;2024-01-07T02:22:10;39.33;;;19.80;;
80541;SDS011;69870;51.460;8.842;2024-01-07T02:24:38;42.33;;;19.10;;
80541;SDS011;69870;51.460;8.842;2024-01-07T02:27:04;40.20;;;18.15;;
80541;SDS011;69870;51.460;8.842;2024-01-07T02:29:31;40.92;;;19.63;;
80541;SDS011;69870;51.460;8.842;2024-01-07T02:31:57;45.15;;;20.23;;
80541;SDS011;69870;51.460;8.842;2024-01-07T02:34:24;39.83;;;20.27;;
80541;SDS011;69870;51.460;8.842;2024-01-07T02:36:51;49.88;;;21.35;;
80541;SDS011;69870;51.460;8.842;2024-01-07T02:39:18;47.13;;;21.25;;
80541;SDS011;69870;51.460;8.842;2024-01-07T02:41:46;46.83;;;23.92;;
80541;SDS011;69870;51.460;8.842;2024-01-07T02:44:13;48.90;;;22.15;;
80541;SDS011;69870;51.460;8.842;2024-01-07T02:46:40;49.80;;;23.20;;
80541;SDS011;69870;51.460;8.842;2024-01-07T02:49:07;53.00;;;23.52;;
80541;SDS011;69870;51.460;8.842;2024-01-07T02:51:33;54.47;;;23.38;;
80541;SDS011;69870;51.460;8.842;2024-01-07T02:54:00;54.38;;;24.60;;
80541;SDS011;69870;51.460;8.842;2024-01-07T02:56:27;60.17;;;25.80;;
80541;SDS011;69870;51.460;8.842;2024-01-07T02:58:55;44.00;;;18.42;;
80541;SDS011;69870;51.460;8.842;2024-01-07T03:01:22;50.03;;;21.98;;
80541;SDS011;69870;51.460;8.842;2024-01-07T03:03:48;47.83;;;22.13;;
80541;SDS011;69870;51.460;8.842;2024-01-07T03:06:15;46.80;;;21.08;;
80541;SDS011;69870;51.460;8.842;2024-01-07T03:08:41;45.45;;;21.95;;
80541;SDS011;69870;51.460;8.842;2024-01-07T03:11:08;40.92;;;20.65;;
80541;SDS011;69870;51.460;8.842;2024-01-07T03:13:34;45.38;;;21.40;;
80541;SDS011;69870;51.460;8.842;2024-01-07T03:16:03;48.00;;;21.20;;
80541;SDS011;69870;51.460;8.842;2024-01-07T03:18:30;44.92;;;21.35;;
80541;SDS011;69870;51.460;8.842;2024-01-07T03:20:56;46.90;;;22.45;;
80541;SDS011;69870;51.460;8.842;2024-01-07T03:23:23;49.75;;;22.17;;
80541;SDS011;69870;51.460;8.842;2024-01-07T03:25:49;46.35;;;21.63;;
80541;SDS011;69870;51.460;8.842;2024-01-07T03:28:16;46.58;;;20.05;;
80541;SDS011;69870;51.460;8.842;2024-01-07T03:30:42;47.03;;;21.25;;
80541;SDS011;69870;51.460;8.842;2024-01-07T03:33:10;46.67;;;20.17;;
80541;SDS011;69870;51.460;8.842;2024-01-07T03:35:37;56.20;;;23.60;;
80541;SDS011;69870;51.460;8.842;2024-01-07T03:38:03;51.25;;;24.35;;
80541;SDS011;69870;51.460;8.842;2024-01-07T03:40:30;54.78;;;23.80;;
80541;SDS011;69870;51.460;8.842;2024-01-07T03:42:56;50.45;;;24.10;;
80541;SDS011;69870;51.460;8.842;2024-01-07T03:45:23;55.33;;;24.25;;
80541;SDS011;69870;51.460;8.842;2024-01-07T03:47:49;49.30;;;22.73;;
80541;SDS011;69870;51.460;8.842;2024-01-07T03:50:17;51.67;;;24.45;;
80541;SDS011;69870;51.460;8.842;2024-01-07T03:52:44;47.63;;;24.42;;
80541;SDS011;69870;51.460;8.842;2024-01-07T03:55:10;53.70;;;25.63;;
80541;SDS011;69870;51.460;8.842;2024-01-07T03:57:37;53.03;;;23.65;;
80541;SDS011;69870;51.460;8.842;2024-01-07T04:00:04;51.08;;;23.38;;
80541;SDS011;69870;51.460;8.842;2024-01-07T04:02:31;53.35;;;23.27;;
80541;SDS011;69870;51.460;8.842;2024-01-07T04:04:57;52.95;;;23.90;;
80541;SDS011;69870;51.460;8.842;2024-01-07T04:07:25;47.17;;;21.83;;
80541;SDS011;69870;51.460;8.842;2024-01-07T04:09:52;50.65;;;23.33;;
80541;SDS011;69870;51.460;8.842;2024-01-07T04:12:18;42.10;;;22.13;;
80541;SDS011;69870;51.460;8.842;2024-01-07T04:14:45;42.58;;;21.58;;
80541;SDS011;69870;51.460;8.842;2024-01-07T04:17:12;37.58;;;19.15;;
80541;SDS011;69870;51.460;8.842;2024-01-07T04:19:38;44.15;;;19.52;;
80541;SDS011;69870;51.460;8.842;2024-01-07T04:22:05;44.03;;;21.27;;
80541;SDS011;69870;51.460;8.842;2024-01-07T04:24:32;45.45;;;21.73;;
80541;SDS011;69870;51.460;8.842;2024-01-07T04:26:59;47.58;;;22.83;;
80541;SDS011;69870;51.460;8.842;2024-01-07T04:29:25;55.55;;;24.05;;
80541;SDS011;69870;51.460;8.842;2024-01-07T04:31:52;48.53;;;22.63;;
80541;SDS011;69870;51.460;8.842;2024-01-07T04:34:18;49.95;;;22.65;;
80541;SDS011;69870;51.460;8.842;2024-01-07T04:36:45;54.53;;;24.45;;
80541;SDS011;69870;51.460;8.842;2024-01-07T04:39:12;54.70;;;23.95;;
80541;SDS011;69870;51.460;8.842;2024-01-07T04:41:40;48.70;;;23.70;;
80541;SDS011;69870;51.460;8.842;2024-01-07T04:44:07;53.75;;;25.63;;
80541;SDS011;69870;51.460;8.842;2024-01-07T04:46:33;63.95;;;28.30;;
80541;SDS011;69870;51.460;8.842;2024-01-07T04:49:00;61.40;;;26.27;;
80541;SDS011;69870;51.460;8.842;2024-01-07T04:51:27;53.17;;;25.63;;
80541;SDS011;69870;51.460;8.842;2024-01-07T04:53:54;61.65;;;27.63;;
80541;SDS011;69870;51.460;8.842;2024-01-07T04:56:20;47.38;;;23.73;;
80541;SDS011;69870;51.460;8.842;2024-01-07T04:58:48;54.15;;;23.85;;
80541;SDS011;69870;51.460;8.842;2024-01-07T05:01:15;45.28;;;21.90;;
80541;SDS011;69870;51.460;8.842;2024-01-07T05:03:42;46.22;;;22.40;;
80541;SDS011;69870;51.460;8.842;2024-01-07T05:06:08;44.53;;;22.00;;
80541;SDS011;69870;51.460;8.842;2024-01-07T05:08:35;43.10;;;20.70;;
80541;SDS011;69870;51.460;8.842;2024-01-07T05:11:02;46.30;;;21.55;;
80541;SDS011;69870;51.460;8.842;2024-01-07T05:13:29;47.45;;;22.60;;
80541;SDS011;69870;51.460;8.842;2024-01-07T05:15:57;48.60;;;22.48;;
80541;SDS011;69870;51.460;8.842;2024-01-07T05:18:24;44.65;;;19.77;;
80541;SDS011;69870;51.460;8.842;2024-01-07T05:20:51;50.00;;;21.65;;
80541;SDS011;69870;51.460;8.842;2024-01-07T05:23:18;44.10;;;20.42;;
80541;SDS011;69870;51.460;8.842;2024-01-07T05:25:44;42.97;;;21.10;;
80541;SDS011;69870;51.460;8.842;2024-01-07T05:28:11;43.58;;;20.13;;
80541;SDS011;69870;51.460;8.842;2024-01-07T05:30:38;47.38;;;20.08;;
80541;SDS011;69870;51.460;8.842;2024-01-07T05:33:07;46.13;;;21.23;;
80541;SDS011;69870;51.460;8.842;2024-01-07T05:35:33;44.08;;;20.10;;
80541;SDS011;69870;51.460;8.842;2024-01-07T05:38:01;44.13;;;19.98;;
80541;SDS011;69870;51.460;8.842;2024-01-07T05:40:27;38.83;;;19.33;;
80541;SDS011;69870;51.460;8.842;2024-01-07T05:42:54;41.50;;;20.67;;
80541;SDS011;69870;51.460;8.842;2024-01-07T05:45:20;41.33;;;19.38;;
80541;SDS011;69870;51.460;8.842;2024-01-07T05:47:47;41.15;;;18.88;;
80541;SDS011;69870;51.460;8.842;2024-01-07T05:50:15;35.78;;;18.63;;
80541;SDS011;69870;51.460;8.842;2024-01-07T05:52:44;35.70;;;17.58;;
80541;SDS011;69870;51.460;8.842;2024-01-07T05:55:10;32.95;;;17.40;;
80541;SDS011;69870;51.460;8.842;2024-01-07T05:57:37;34.88;;;16.63;;
80541;SDS011;69870;51.460;8.842;2024-01-07T06:00:04;37.58;;;17.92;;
80541;SDS011;69870;51.460;8.842;2024-01-07T06:02:38;32.92;;;16.92;;
80541;SDS011;69870;51.460;8.842;2024-01-07T06:05:05;26.20;;;14.05;;
80541;SDS011;69870;51.460;8.842;2024-01-07T06:07:33;25.70;;;14.63;;
80541;SDS011;69870;51.460;8.842;2024-01-07T06:10:00;28.77;;;14.38;;
80541;SDS011;69870;51.460;8.842;2024-01-07T06:12:27;26.67;;;13.57;;
80541;SDS011;69870;51.460;8.842;2024-01-07T06:14:53;24.77;;;13.82;;
80541;SDS011;69870;51.460;8.842;2024-01-07T06:17:20;26.42;;;13.77;;
80541;SDS011;69870;51.460;8.842;2024-01-07T06:19:46;26.75;;;13.63;;
80541;SDS011;69870;51.460;8.842;2024-01-07T06:22:13;25.80;;;13.32;;
80541;SDS011;69870;51.460;8.842;2024-01-07T06:24:41;25.90;;;14.10;;
80541;SDS011;69870;51.460;8.842;2024-01-07T06:27:07;28.40;;;13.50;;
80541;SDS011;69870;51.460;8.842;2024-01-07T06:29:34;25.70;;;13.57;;
80541;SDS011;69870;51.460;8.842;2024-01-07T06:32:01;29.42;;;13.80;;
80541;SDS011;69870;51.460;8.842;2024-01-07T06:34:28;23.02;;;13.10;;
80541;SDS011;69870;51.460;8.842;2024-01-07T06:36:55;23.92;;;13.02;;
80541;SDS011;69870;51.460;8.842;2024-01-07T06:39:21;27.85;;;13.65;;
80541;SDS011;69870;51.460;8.842;2024-01-07T06:41:49;21.17;;;12.85;;
80541;SDS011;69870;51.460;8.842;2024-01-07T06:44:16;26.45;;;14.45;;
80541;SDS011;69870;51.460;8.842;2024-01-07T06:46:42;22.50;;;12.75;;
80541;SDS011;69870;51.460;8.842;2024-01-07T06:49:09;19.80;;;12.95;;
80541;SDS011;69870;51.460;8.842;2024-01-07T06:51:35;25.77;;;13.18;;
80541;SDS011;69870;51.460;8.842;2024-01-07T06:54:03;25.10;;;12.80;;
80541;SDS011;69870;51.460;8.842;2024-01-07T06:56:30;25.85;;;14.23;;
80541;SDS011;69870;51.460;8.842;2024-01-07T06:58:58;25.35;;;13.48;;
80541;SDS011;69870;51.460;8.842;2024-01-07T07:01:25;24.45;;;13.15;;
80541;SDS011;69870;51.460;8.842;2024-01-07T07:03:52;28.25;;;13.32;;
80541;SDS011;69870;51.460;8.842;2024-01-07T07:06:18;26.02;;;13.57;;
80541;SDS011;69870;51.460;8.842;2024-01-07T07:08:45;24.85;;;13.73;;
80541;SDS011;69870;51.460;8.842;2024-01-07T07:11:11;27.67;;;13.60;;
80541;SDS011;69870;51.460;8.842;2024-01-07T07:13:38;26.48;;;13.27;;
80541;SDS011;69870;51.460;8.842;2024-01-07T07:16:06;23.85;;;13.32;;
80541;SDS011;69870;51.460;8.842;2024-01-07T07:18:33;21.00;;;11.85;;
80541;SDS011;69870;51.460;8.842;2024-01-07T07:21:00;23.13;;;12.57;;
80541;SDS011;69870;51.460;8.842;2024-01-07T07:23:27;34.20;;;16.50;;
80541;SDS011;69870;51.460;8.842;2024-01-07T07:25:53;25.20;;;13.55;;
80541;SDS011;69870;51.460;8.842;2024-01-07T07:28:20;21.08;;;11.60;;
80541;SDS011;69870;51.460;8.842;2024-01-07T07:30:46;20.45;;;10.27;;
80541;SDS011;69870;51.460;8.842;2024-01-07T07:33:14;21.00;;;10.80;;
80541;SDS011;69870;51.460;8.842;2024-01-07T07:35:41;17.27;;;9.88;;
80541;SDS011;69870;51.460;8.842;2024-01-07T07:38:07;22.65;;;11.00;;
80541;SDS011;69870;51.460;8.842;2024-01-07T07:40:34;20.33;;;9.60;;
80541;SDS011;69870;51.460;8.842;2024-01-07T07:43:00;22.77;;;10.30;;
80541;SDS011;69870;51.460;8.842;2024-01-07T07:45:27;20.42;;;11.65;;
80541;SDS011;69870;51.460;8.842;2024-01-07T07:47:54;21.50;;;10.55;;
80541;SDS011;69870;51.460;8.842;2024-01-07T07:50:22;23.55;;;10.88;;
80541;SDS011;69870;51.460;8.842;2024-01-07T07:52:48;22.80;;;11.95;;
80541;SDS011;69870;51.460;8.842;2024-01-07T07:55:16;23.13;;;12.40;;
80541;SDS011;69870;51.460;8.842;2024-01-07T07:57:49;17.92;;;11.10;;
80541;SDS011;69870;51.460;8.842;2024-01-07T08:00:18;22.63;;;12.52;;
80541;SDS011;69870;51.460;8.842;2024-01-07T08:03:23;24.52;;;12.15;;
80541;SDS011;69870;51.460;8.842;2024-01-07T08:05:53;28.88;;;14.77;;
80541;SDS011;69870;51.460;8.842;2024-01-07T08:08:23;25.92;;;14.60;;
80541;SDS011;69870;51.460;8.842;2024-01-07T08:10:50;26.23;;;12.77;;
80541;SDS011;69870;51.460;8.842;2024-01-07T08:13:19;34.25;;;13.68;;
80541;SDS011;69870;51.460;8.842;2024-01-07T08:15:47;27.20;;;13.13;;
80541;SDS011;69870;51.460;8.842;2024-01-07T08:18:15;27.00;;;13.70;;
80541;SDS011;69870;51.460;8.842;2024-01-07T08:20:43;26.35;;;13.00;;
80541;SDS011;69870;51.460;8.842;2024-01-07T08:23:12;25.60;;;12.32;;
80541;SDS011;69870;51.460;8.842;2024-01-07T08:25:41;27.15;;;13.15;;
80541;SDS011;69870;51.460;8.842;2024-01-07T08:28:10;21.23;;;11.18;;
80541;SDS011;69870;51.460;8.842;2024-01-07T08:30:42;29.20;;;12.60;;
80541;SDS011;69870;51.460;8.842;2024-01-07T08:33:11;29.33;;;11.73;;
80541;SDS011;69870;51.460;8.842;2024-01-07T08:35:39;29.48;;;12.55;;
80541;SDS011;69870;51.460;8.842;2024-01-07T08:38:07;25.45;;;11.40;;
80541;SDS011;69870;51.460;8.842;2024-01-07T08:40:36;28.48;;;12.20;;
80541;SDS011;69870;51.460;8.842;2024-01-07T08:43:04;26.52;;;11.25;;
80541;SDS011;69870;51.460;8.842;2024-01-07T08:45:32;29.45;;;11.75;;
80541;SDS011;69870;51.460;8.842;2024-01-07T08:48:00;25.10;;;11.98;;
80541;SDS011;69870;51.460;8.842;2024-01-07T08:50:28;23.85;;;12.48;;
80541;SDS011;69870;51.460;8.842;2024-01-07T08:52:56;26.13;;;10.82;;
80541;SDS011;69870;51.460;8.842;2024-01-07T08:55:23;27.05;;;11.02;;
80541;SDS011;69870;51.460;8.842;2024-01-07T08:57:52;22.77;;;11.00;;
80541;SDS011;69870;51.460;8.842;2024-01-07T09:00:19;33.20;;;11.48;;
80541;SDS011;69870;51.460;8.842;2024-01-07T09:02:51;22.83;;;9.70;;
80541;SDS011;69870;51.460;8.842;2024-01-07T09:05:18;26.20;;;10.73;;
80541;SDS011;69870;51.460;8.842;2024-01-07T09:07:46;25.90;;;11.25;;
80541;SDS011;69870;51.460;8.842;2024-01-07T09:10:14;25.35;;;9.98;;
80541;SDS011;69870;51.460;8.842;2024-01-07T09:12:45;25.60;;;10.82;;
80541;SDS011;69870;51.460;8.842;2024-01-07T09:15:14;22.38;;;8.88;;
80541;SDS011;69870;51.460;8.842;2024-01-07T09:17:46;23.15;;;8.73;;
80541;SDS011;69870;51.460;8.842;2024-01-07T09:20:14;16.90;;;7.85;;
80541;SDS011;69870;51.460;8.842;2024-01-07T09:22:44;17.65;;;7.55;;
80541;SDS011;69870;51.460;8.842;2024-01-07T09:25:14;15.90;;;7.20;;
80541;SDS011;69870;51.460;8.842;2024-01-07T09:27:57;19.30;;;7.20;;
80541;SDS011;69870;51.460;8.842;2024-01-07T09:30:30;11.93;;;4.63;;
80541;SDS011;69870;51.460;8.842;2024-01-07T09:32:58;19.00;;;6.93;;
80541;SDS011;69870;51.460;8.842;2024-01-07T09:35:29;11.82;;;5.75;;
80541;SDS011;69870;51.460;8.842;2024-01-07T09:37:57;12.18;;;5.95;;
80541;SDS011;69870;51.460;8.842;2024-01-07T09:40:32;10.13;;;5.45;;
80541;SDS011;69870;51.460;8.842;2024-01-07T09:43:03;10.18;;;5.43;;
80541;SDS011;69870;51.460;8.842;2024-01-07T09:45:34;7.45;;;4.75;;
80541;SDS011;69870;51.460;8.842;2024-01-07T09:48:08;11.60;;;5.63;;
80541;SDS011;69870;51.460;8.842;2024-01-07T09:50:37;9.65;;;4.72;;
80541;SDS011;69870;51.460;8.842;2024-01-07T09:53:10;10.25;;;5.25;;
80541;SDS011;69870;51.460;8.842;2024-01-07T09:55:50;11.57;;;4.85;;
80541;SDS011;69870;51.460;8.842;2024-01-07T09:58:28;10.65;;;4.82;;
80541;SDS011;69870;51.460;8.842;2024-01-07T10:00:58;9.23;;;4.25;;
80541;SDS011;69870;51.460;8.842;2024-01-07T10:03:31;12.65;;;5.22;;
80541;SDS011;69870;51.460;8.842;2024-01-07T10:06:05;7.50;;;4.07;;
80541;SDS011;69870;51.460;8.842;2024-01-07T10:08:36;6.93;;;3.78;;
80541;SDS011;69870;51.460;8.842;2024-01-07T10:11:07;9.77;;;3.97;;
80541;SDS011;69870;51.460;8.842;2024-01-07T10:13:38;9.02;;;4.10;;
80541;SDS011;69870;51.460;8.842;2024-01-07T10:16:15;8.05;;;4.78;;
80541;SDS011;69870;51.460;8.842;2024-01-07T10:18:43;10.60;;;4.13;;
80541;SDS011;69870;51.460;8.842;2024-01-07T10:21:10;11.95;;;4.13;;
80541;SDS011;69870;51.460;8.842;2024-01-07T10:23:38;8.27;;;4.53;;
80541;SDS011;69870;51.460;8.842;2024-01-07T10:26:10;10.48;;;4.90;;
80541;SDS011;69870;51.460;8.842;2024-01-07T10:28:38;7.93;;;4.05;;
80541;SDS011;69870;51.460;8.842;2024-01-07T10:31:07;10.52;;;4.40;;
80541;SDS011;69870;51.460;8.842;2024-01-07T10:33:37;10.45;;;4.47;;
80541;SDS011;69870;51.460;8.842;2024-01-07T10:36:09;7.53;;;4.13;;
80541;SDS011;69870;51.460;8.842;2024-01-07T10:38:38;7.75;;;3.28;;
80541;SDS011;69870;51.460;8.842;2024-01-07T10:41:09;7.35;;;3.92;;
80541;SDS011;69870;51.460;8.842;2024-01-07T10:43:40;9.95;;;4.57;;
80541;SDS011;69870;51.460;8.842;2024-01-07T10:46:14;9.05;;;4.68;;
80541;SDS011;69870;51.460;8.842;2024-01-07T10:48:46;9.60;;;4.50;;
80541;SDS011;69870;51.460;8.842;2024-01-07T10:51:22;13.60;;;5.13;;
80541;SDS011;69870;51.460;8.842;2024-01-07T10:53:52;16.00;;;5.15;;
80541;SDS011;69870;51.460;8.842;2024-01-07T10:56:25;8.73;;;4.07;;
80541;SDS011;69870;51.460;8.842;2024-01-07T10:59:01;10.63;;;4.93;;
80541;SDS011;69870;51.460;8.842;2024-01-07T11:01:32;8.38;;;4.18;;
80541;SDS011;69870;51.460;8.842;2024-01-07T11:04:07;12.95;;;4.00;;
80541;SDS011;69870;51.460;8.842;2024-01-07T11:06:43;8.85;;;4.53;;
80541;SDS011;69870;51.460;8.842;2024-01-07T11:09:26;12.93;;;4.60;;
80541;SDS011;69870;51.460;8.842;2024-01-07T11:14:35;8.70;;;3.95;;
80541;SDS011;69870;51.460;8.842;2024-01-07T11:17:03;7.97;;;4.35;;
80541;SDS011;69870;51.460;8.842;2024-01-07T11:19:33;10.10;;;4.82;;
80541;SDS011;69870;51.460;8.842;2024-01-07T11:22:22;15.40;;;5.95;;
80541;SDS011;69870;51.460;8.842;2024-01-07T11:24:53;20.02;;;7.57;;
80541;SDS011;69870;51.460;8.842;2024-01-07T11:27:22;18.10;;;7.63;;
80541;SDS011;69870;51.460;8.842;2024-01-07T11:29:57;10.80;;;5.28;;
80541;SDS011;69870;51.460;8.842;2024-01-07T11:32:33;22.38;;;9.35;;
80541;SDS011;69870;51.460;8.842;2024-01-07T11:35:04;6.75;;;3.80;;
80541;SDS011;69870;51.460;8.842;2024-01-07T11:37:35;7.55;;;4.30;;
80541;SDS011;69870;51.460;8.842;2024-01-07T11:40:06;6.93;;;3.30;;
80541;SDS011;69870;51.460;8.842;2024-01-07T11:42:39;6.88;;;3.30;;
80541;SDS011;69870;51.460;8.842;2024-01-07T11:45:07;5.65;;;3.97;;
80541;SDS011;69870;51.460;8.842;2024-01-07T11:47:42;6.22;;;3.53;;
80541;SDS011;69870;51.460;8.842;2024-01-07T11:50:15;5.85;;;3.20;;
80541;SDS011;69870;51.460;8.842;2024-01-07T11:52:47;6.53;;;3.10;;
80541;SDS011;69870;51.460;8.842;2024-01-07T11:55:25;6.93;;;3.50;;
80541;SDS011;69870;51.460;8.842;2024-01-07T11:58:00;7.95;;;3.30;;
80541;SDS011;69870;51.460;8.842;2024-01-07T12:00:30;4.53;;;2.97;;
80541;SDS011;69870;51.460;8.842;2024-01-07T12:02:57;6.03;;;3.40;;
80541;SDS011;69870;51.460;8.842;2024-01-07T12:05:25;10.13;;;3.60;;
80541;SDS011;69870;51.460;8.842;2024-01-07T12:07:51;5.88;;;3.10;;
80541;SDS011;69870;51.460;8.842;2024-01-07T12:10:19;8.38;;;3.58;;
80541;SDS011;69870;51.460;8.842;2024-01-07T12:12:45;6.05;;;2.65;;
80541;SDS011;69870;51.460;8.842;2024-01-07T12:15:12;5.35;;;2.33;;
80541;SDS011;69870;51.460;8.842;2024-01-07T12:17:39;7.95;;;3.13;;
80541;SDS011;69870;51.460;8.842;2024-01-07T12:20:06;6.40;;;2.28;;
80541;SDS011;69870;51.460;8.842;2024-01-07T12:22:38;5.60;;;2.90;;
80541;SDS011;69870;51.460;8.842;2024-01-07T12:25:05;5.00;;;2.65;;
80541;SDS011;69870;51.460;8.842;2024-01-07T12:27:33;4.75;;;2.55;;
80541;SDS011;69870;51.460;8.842;2024-01-07T12:30:00;4.82;;;2.70;;
80541;SDS011;69870;51.460;8.842;2024-01-07T12:32:27;5.63;;;2.63;;
80541;SDS011;69870;51.460;8.842;2024-01-07T12:34:56;5.75;;;2.65;;
80541;SDS011;69870;51.460;8.842;2024-01-07T12:37:25;11.70;;;4.63;;
80541;SDS011;69870;51.460;8.842;2024-01-07T12:39:54;5.30;;;2.85;;
80541;SDS011;69870;51.460;8.842;2024-01-07T12:42:20;7.82;;;3.33;;
80541;SDS011;69870;51.460;8.842;2024-01-07T12:44:48;7.88;;;2.92;;
80541;SDS011;69870;51.460;8.842;2024-01-07T12:47:15;6.43;;;3.00;;
80541;SDS011;69870;51.460;8.842;2024-01-07T12:49:42;8.50;;;2.85;;
80541;SDS011;69870;51.460;8.842;2024-01-07T12:52:08;6.50;;;3.22;;
80541;SDS011;69870;51.460;8.842;2024-01-07T12:54:35;9.07;;;3.30;;
80541;SDS011;69870;51.460;8.842;2024-01-07T12:57:04;5.22;;;2.80;;
80541;SDS011;69870;51.460;8.842;2024-01-07T12:59:31;5.80;;;2.90;;
80541;SDS011;69870;51.460;8.842;2024-01-07T13:01:57;4.05;;;2.35;;
80541;SDS011;69870;51.460;8.842;2024-01-07T13:04:24;5.95;;;2.85;;
80541;SDS011;69870;51.460;8.842;2024-01-07T13:06:54;5.95;;;2.85;;
80541;SDS011;69870;51.460;8.842;2024-01-07T13:09:28;6.40;;;3.10;;
80541;SDS011;69870;51.460;8.842;2024-01-07T13:11:56;9.13;;;3.40;;
80541;SDS011;69870;51.460;8.842;2024-01-07T13:14:27;11.60;;;3.50;;
80541;SDS011;69870;51.460;8.842;2024-01-07T13:16:59;6.53;;;3.22;;
80541;SDS011;69870;51.460;8.842;2024-01-07T13:19:34;5.40;;;3.45;;
80541;SDS011;69870;51.460;8.842;2024-01-07T13:22:01;6.43;;;2.70;;
80541;SDS011;69870;51.460;8.842;2024-01-07T13:24:28;8.45;;;3.13;;
80541;SDS011;69870;51.460;8.842;2024-01-07T13:26:55;7.82;;;3.53;;
80541;SDS011;69870;51.460;8.842;2024-01-07T13:29:22;7.20;;;3.20;;
80541;SDS011;69870;51.460;8.842;2024-01-07T13:31:51;9.07;;;3.00;;
80541;SDS011;69870;51.460;8.842;2024-01-07T13:34:17;7.60;;;3.28;;
80541;SDS011;69870;51.460;8.842;2024-01-07T13:36:44;9.98;;;4.18;;
80541;SDS011;69870;51.460;8.842;2024-01-07T13:39:11;7.15;;;3.88;;
80541;SDS011;69870;51.460;8.842;2024-01-07T13:41:39;10.70;;;3.03;;
80541;SDS011;69870;51.460;8.842;2024-01-07T13:44:05;7.50;;;4.13;;
80541;SDS011;69870;51.460;8.842;2024-01-07T13:46:32;8.15;;;3.10;;
80541;SDS011;69870;51.460;8.842;2024-01-07T13:49:00;6.10;;;3.50;;
80541;SDS011;69870;51.460;8.842;2024-01-07T13:51:27;5.43;;;2.97;;
80541;SDS011;69870;51.460;8.842;2024-01-07T13:53:54;4.95;;;2.75;;
80541;SDS011;69870;51.460;8.842;2024-01-07T13:56:20;8.93;;;4.18;;
80541;SDS011;69870;51.460;8.842;2024-01-07T13:58:47;10.75;;;3.75;;
80541;SDS011;69870;51.460;8.842;2024-01-07T14:01:15;9.48;;;3.08;;
80541;SDS011;69870;51.460;8.842;2024-01-07T14:03:42;4.28;;;2.60;;
80541;SDS011;69870;51.460;8.842;2024-01-07T14:06:10;4.57;;;2.22;;
80541;SDS011;69870;51.460;8.842;2024-01-07T14:08:37;4.88;;;2.90;;
80541;SDS011;69870;51.460;8.842;2024-01-07T14:11:03;5.75;;;2.63;;
80541;SDS011;69870;51.460;8.842;2024-01-07T14:13:32;5.10;;;2.67;;
80541;SDS011;69870;51.460;8.842;2024-01-07T14:15:59;7.90;;;3.08;;
80541;SDS011;69870;51.460;8.842;2024-01-07T14:18:25;6.63;;;3.25;;
80541;SDS011;69870;51.460;8.842;2024-01-07T14:20:52;6.32;;;2.55;;
80541;SDS011;69870;51.460;8.842;2024-01-07T14:23:20;7.32;;;2.67;;
80541;SDS011;69870;51.460;8.842;2024-01-07T14:25:46;8.00;;;2.90;;
80541;SDS011;69870;51.460;8.842;2024-01-07T14:28:13;6.18;;;3.28;;
80541;SDS011;69870;51.460;8.842;2024-01-07T14:30:40;8.90;;;3.55;;
80541;SDS011;69870;51.460;8.842;2024-01-07T14:33:06;6.70;;;3.28;;
80541;SDS011;69870;51.460;8.842;2024-01-07T14:35:33;9.45;;;2.97;;
80541;SDS011;69870;51.460;8.842;2024-01-07T14:37:59;5.25;;;3.22;;
80541;SDS011;69870;51.460;8.842;2024-01-07T14:40:27;6.28;;;3.17;;